createdAt,value
2018-05-06T00:03:11.172Z,51.17
2018-05-06T00:05:43.486Z,51.90
2018-05-06T00:08:12.896Z,51.31
2018-05-06T00:10:42.213Z,51.39
2018-05-06T00:13:12.287Z,52.13
2018-05-06T00:15:45.528Z,51.69
2018-05-06T00:18:14.424Z,53.20
2018-05-06T00:20:42.851Z,53.02
2018-05-06T00:23:12.905Z,53.22
2018-05-06T00:25:42.122Z,52.10
2018-05-06T00:28:12.179Z,53.20
2018-05-06T00:30:42.274Z,52.43
2018-05-06T00:33:10.740Z,53.33
2018-05-06T00:35:39.151Z,52.63
2018-05-06T00:38:11.907Z,52.98
2018-05-06T00:40:50.688Z,52.41
2018-05-06T00:43:26.457Z,53.34
2018-05-06T00:54:44.279Z,53.65
2018-05-06T00:57:13.914Z,54.18
2018-05-06T00:59:43.936Z,53.78
2018-05-06T01:02:14.147Z,55.19
2018-05-06T01:04:43.935Z,55.74
2018-05-06T01:07:13.373Z,57.22
2018-05-06T01:09:43.808Z,56.07
2018-05-06T01:12:13.458Z,55.91
2018-05-06T01:14:42.608Z,55.82
2018-05-06T01:17:14.026Z,55.76
2018-05-06T01:19:44.151Z,55.30
2018-05-06T01:22:14.046Z,54.70
2018-05-06T01:24:43.724Z,55.02
2018-05-06T01:27:14.001Z,53.35
2018-05-06T01:29:43.782Z,55.01
2018-05-06T01:32:13.800Z,55.46
2018-05-06T01:34:44.108Z,54.38
2018-05-06T01:37:14.073Z,54.91
2018-05-06T01:39:42.488Z,53.88
2018-05-06T01:42:10.948Z,54.37
2018-05-06T01:44:43.134Z,55.44
2018-05-06T01:47:13.681Z,56.01
2018-05-06T01:49:43.709Z,55.88
2018-05-06T01:52:13.568Z,56.48
2018-05-06T01:54:53.542Z,56.31
2018-05-06T01:57:24.267Z,55.51
2018-05-06T01:59:54.254Z,56.11
2018-05-06T02:02:22.692Z,56.20
2018-05-06T02:04:53.621Z,56.05
2018-05-06T02:07:24.825Z,55.78
2018-05-06T02:09:54.200Z,56.41
2018-05-06T02:12:22.668Z,56.02
2018-05-06T02:14:53.257Z,55.62
2018-05-06T02:17:23.975Z,56.29
2018-05-06T02:19:53.946Z,56.72
2018-05-06T02:22:22.465Z,57.32
2018-05-06T02:24:54.955Z,57.38
2018-05-06T02:27:24.340Z,58.00
2018-05-06T02:29:53.958Z,57.78
2018-05-06T02:32:24.146Z,57.23
2018-05-06T02:34:54.089Z,57.83
2018-05-06T02:37:22.546Z,58.35
2018-05-06T02:39:51.727Z,57.08
2018-05-06T02:42:20.315Z,56.57
2018-05-06T02:44:51.598Z,57.23
2018-05-06T02:47:22.999Z,56.95
2018-05-06T02:49:52.378Z,58.47
2018-05-06T02:52:21.960Z,58.27
2018-05-06T02:54:53.236Z,58.99
2018-05-06T02:57:21.836Z,58.78
2018-05-06T02:59:51.870Z,59.42
2018-05-06T03:02:23.185Z,58.79
2018-05-06T03:04:52.425Z,58.24
2018-05-06T03:07:22.847Z,58.10
2018-05-06T03:09:52.658Z,58.39
2018-05-06T03:12:21.951Z,57.94
2018-05-06T03:14:52.697Z,57.46
2018-05-06T03:17:22.971Z,58.35
2018-05-06T03:19:52.995Z,58.70
2018-05-06T03:22:22.168Z,58.76
2018-05-06T03:24:50.622Z,58.42
2018-05-06T03:27:21.618Z,59.39
2018-05-06T03:29:52.333Z,58.98
2018-05-06T03:32:23.922Z,58.42
2018-05-06T03:34:53.111Z,59.15
2018-05-06T03:37:22.614Z,58.36
2018-05-06T03:39:52.800Z,58.42
2018-05-06T03:42:21.286Z,58.28
2018-05-06T03:44:52.477Z,58.50
2018-05-06T03:47:22.541Z,59.04
2018-05-06T03:49:52.170Z,58.30
2018-05-06T03:52:22.734Z,58.40
2018-05-06T03:54:53.225Z,57.80
2018-05-06T03:57:39.218Z,58.17
2018-05-06T04:00:25.437Z,58.51
2018-05-06T04:02:54.824Z,58.34
2018-05-06T04:05:23.283Z,58.44
2018-05-06T04:07:51.703Z,57.86
2018-05-06T04:10:23.015Z,58.71
2018-05-06T04:12:52.210Z,58.57
2018-05-06T04:15:22.433Z,58.59
2018-05-06T04:17:52.428Z,58.99
2018-05-06T04:20:22.509Z,59.08
2018-05-06T04:22:52.239Z,58.94
2018-05-06T04:25:22.494Z,58.78
2018-05-06T04:27:52.272Z,58.45
2018-05-06T04:30:22.957Z,59.99
2018-05-06T04:32:52.170Z,59.95
2018-05-06T04:35:20.661Z,59.27
2018-05-06T04:37:51.370Z,59.45
2018-05-06T04:40:22.694Z,59.50
2018-05-06T04:42:52.487Z,60.04
2018-05-06T04:45:22.712Z,60.38
2018-05-06T04:47:51.181Z,60.95
2018-05-06T04:50:20.933Z,60.99
2018-05-06T04:52:53.069Z,60.73
2018-05-06T04:55:22.883Z,60.39
2018-05-06T04:57:53.037Z,60.41
2018-05-06T05:00:23.541Z,60.33
2018-05-06T05:02:53.037Z,60.29
2018-05-06T05:05:22.801Z,60.36
2018-05-06T05:07:52.875Z,60.12
2018-05-06T05:10:22.715Z,60.12
2018-05-06T05:12:53.232Z,60.34
2018-05-06T05:15:22.811Z,60.38
2018-05-06T05:17:52.825Z,60.63
2018-05-06T05:20:23.350Z,61.28
2018-05-06T05:22:53.208Z,62.38
2018-05-06T05:25:23.355Z,62.33
2018-05-06T05:27:53.378Z,62.74
2018-05-06T05:30:22.445Z,63.03
2018-05-06T05:32:52.347Z,63.12
2018-05-06T05:35:30.710Z,65.01
2018-05-06T05:40:40.400Z,63.16
2018-05-06T05:43:09.901Z,62.21
2018-05-06T05:45:39.975Z,61.74
2018-05-06T05:48:11.564Z,61.49
2018-05-06T05:50:40.902Z,63.89
2018-05-06T05:53:22.570Z,62.66
2018-05-06T05:55:53.997Z,61.48
2018-05-06T06:01:13.153Z,65.25
2018-05-06T06:03:42.355Z,63.46
2018-05-06T06:06:10.858Z,62.92
2018-05-06T06:08:41.017Z,62.28
2018-05-06T06:11:10.758Z,62.10
2018-05-06T06:13:40.855Z,63.19
2018-05-06T06:16:12.488Z,62.50
2018-05-06T06:18:59.208Z,62.45
2018-05-06T06:21:56.931Z,64.28
2018-05-06T06:24:30.025Z,65.60
2018-05-06T06:26:58.453Z,64.60
2018-05-06T06:29:28.241Z,66.09
2018-05-06T06:31:58.095Z,65.07
2018-05-06T06:34:28.564Z,66.01
2018-05-06T06:36:58.350Z,65.80
2018-05-06T06:39:28.110Z,66.11
2018-05-06T06:41:58.488Z,65.13
2018-05-06T06:44:28.589Z,64.56
2018-05-06T06:47:00.022Z,65.42
2018-05-06T06:49:28.441Z,63.97
2018-05-06T06:51:57.682Z,64.02
2018-05-06T06:54:28.100Z,65.08
2018-05-06T06:57:00.055Z,64.62
2018-05-06T06:59:28.499Z,64.26
2018-05-06T07:01:58.239Z,64.25
2018-05-06T07:04:28.479Z,63.97
2018-05-06T07:06:58.492Z,64.33
2018-05-06T07:09:28.491Z,64.00
2018-05-06T07:11:58.910Z,64.18
2018-05-06T07:14:27.912Z,63.10
2018-05-06T07:17:00.140Z,63.30
2018-05-06T07:19:28.643Z,62.58
2018-05-06T07:22:00.132Z,62.44
2018-05-06T07:24:28.598Z,62.44
2018-05-06T07:26:58.490Z,61.37
2018-05-06T07:29:28.864Z,61.33
2018-05-06T07:31:58.868Z,60.20
2018-05-06T07:34:28.281Z,59.65
2018-05-06T07:36:59.749Z,58.61
2018-05-06T07:39:36.592Z,55.97
2018-05-06T07:55:38.673Z,55.03
2018-05-06T07:58:07.096Z,53.60
2018-05-06T08:00:35.542Z,53.97
2018-05-06T08:03:03.990Z,52.22
2018-05-06T08:05:32.418Z,53.84
2018-05-06T08:08:00.853Z,53.28
2018-05-06T08:10:29.283Z,53.80
2018-05-06T08:12:58.478Z,51.12
2018-05-06T08:15:26.925Z,50.90
2018-05-06T08:17:56.113Z,52.13
2018-05-06T08:20:24.580Z,52.25
2018-05-06T08:22:53.002Z,50.35
2018-05-06T08:25:21.446Z,48.97
2018-05-06T08:27:49.881Z,49.00
2018-05-06T08:30:18.309Z,51.25
2018-05-06T08:32:46.759Z,51.11
2018-05-06T08:35:15.165Z,49.76
2018-05-06T08:37:44.294Z,48.38
2018-05-06T08:40:13.466Z,48.41
2018-05-06T08:42:41.938Z,48.30
2018-05-06T08:45:10.368Z,49.28
2018-05-06T08:47:38.801Z,48.83
2018-05-06T08:50:07.248Z,48.69
2018-05-06T08:52:35.664Z,47.26
2018-05-06T08:55:04.139Z,47.45
2018-05-06T08:57:33.315Z,49.49
2018-05-06T09:00:01.745Z,45.56
2018-05-06T09:02:30.147Z,46.50
2018-05-06T09:04:58.603Z,47.01
2018-05-06T09:07:27.031Z,47.75
2018-05-06T09:09:55.447Z,46.23
2018-05-06T09:12:23.916Z,46.77
2018-05-06T09:14:52.317Z,47.25
2018-05-06T09:17:20.781Z,47.03
2018-05-06T09:19:49.201Z,46.97
2018-05-06T09:22:18.407Z,49.20
2018-05-06T09:24:46.835Z,47.59
2018-05-06T09:27:16.063Z,46.76
2018-05-06T09:29:45.245Z,47.69
2018-05-06T09:32:13.718Z,47.23
2018-05-06T09:34:42.220Z,47.58
2018-05-06T09:37:10.688Z,46.98
2018-05-06T09:39:39.156Z,47.28
2018-05-06T09:42:07.722Z,47.42
2018-05-06T09:44:36.185Z,47.18
2018-05-06T09:47:04.631Z,44.31
2018-05-06T09:49:33.072Z,44.45
2018-05-06T09:52:01.544Z,46.20
2018-05-06T09:54:30.025Z,43.38
2018-05-06T09:56:58.502Z,42.88
2018-05-06T09:59:26.952Z,44.17
2018-05-06T10:01:56.206Z,42.75
2018-05-06T10:04:24.636Z,43.44
2018-05-06T10:06:53.111Z,42.41
2018-05-06T10:09:22.330Z,42.21
2018-05-06T10:11:50.760Z,42.56
2018-05-06T10:14:19.234Z,42.01
2018-05-06T10:16:47.673Z,41.74
2018-05-06T10:19:16.140Z,41.43
2018-05-06T10:21:45.371Z,41.99
2018-05-06T10:24:13.820Z,42.96
2018-05-06T10:26:42.279Z,40.89
2018-05-06T10:29:10.703Z,39.92
2018-05-06T10:31:39.169Z,39.47
2018-05-06T10:34:08.467Z,40.11
2018-05-06T10:36:36.961Z,41.79
2018-05-06T10:39:06.306Z,41.55
2018-05-06T10:41:34.777Z,40.64
2018-05-06T10:44:04.080Z,41.31
2018-05-06T10:46:32.489Z,39.70
2018-05-06T10:49:00.993Z,41.47
2018-05-06T10:51:29.438Z,41.02
2018-05-06T10:53:57.859Z,40.84
2018-05-06T10:56:26.331Z,39.79
2018-05-06T10:58:54.790Z,38.68
2018-05-06T11:01:23.256Z,37.96
2018-05-06T11:03:51.718Z,39.15
2018-05-06T11:06:20.921Z,37.87
2018-05-06T11:08:49.369Z,37.65
2018-05-06T11:11:17.825Z,37.63
2018-05-06T11:13:46.291Z,37.09
2018-05-06T11:16:14.752Z,36.41
2018-05-06T11:18:43.976Z,38.33
2018-05-06T11:21:13.228Z,36.63
2018-05-06T11:23:41.703Z,36.28
2018-05-06T11:26:11.038Z,38.46
2018-05-06T11:28:39.438Z,39.17
2018-05-06T11:31:08.695Z,38.69
2018-05-06T11:33:37.127Z,38.18
2018-05-06T11:36:05.578Z,39.04
2018-05-06T11:38:34.083Z,39.39
2018-05-06T11:41:03.357Z,35.77
2018-05-06T11:43:32.512Z,37.95
2018-05-06T11:46:00.940Z,36.95
2018-05-06T11:48:29.421Z,37.83
2018-05-06T11:50:58.647Z,38.55
2018-05-06T11:53:27.118Z,37.88
2018-05-06T11:55:55.572Z,38.68
2018-05-06T11:58:24.027Z,38.09
2018-05-06T12:00:52.484Z,36.63
2018-05-06T12:03:21.682Z,38.79
2018-05-06T12:05:50.137Z,37.71
2018-05-06T12:08:18.612Z,36.29
2018-05-06T12:10:47.078Z,38.22
2018-05-06T12:13:15.535Z,36.93
2018-05-06T12:15:43.968Z,36.87
2018-05-06T12:18:12.437Z,35.64
2018-05-06T12:20:41.635Z,34.66
2018-05-06T12:23:10.103Z,35.89
2018-05-06T12:25:38.520Z,36.86
2018-05-06T12:28:06.978Z,34.93
2018-05-06T12:30:36.230Z,36.62
2018-05-06T12:33:04.679Z,35.86
2018-05-06T12:35:33.106Z,35.18
2018-05-06T12:38:01.549Z,36.05
2018-05-06T12:40:29.997Z,35.74
2018-05-06T12:42:58.428Z,35.80
2018-05-06T12:45:27.666Z,35.21
2018-05-06T12:47:56.190Z,35.76
2018-05-06T12:50:24.617Z,36.51
2018-05-06T12:52:53.030Z,36.18
2018-05-06T12:55:21.553Z,34.87
2018-05-06T12:57:49.977Z,36.42
2018-05-06T13:00:19.182Z,35.94
2018-05-06T13:02:47.612Z,36.31
2018-05-06T13:05:16.835Z,36.96
2018-05-06T13:07:45.301Z,36.63
2018-05-06T13:10:13.717Z,35.34
2018-05-06T13:12:42.187Z,35.73
2018-05-06T13:15:10.647Z,35.80
2018-05-06T13:20:42.253Z,34.79
2018-05-06T13:23:11.357Z,35.45
2018-05-06T13:25:40.278Z,35.27
2018-05-06T13:28:08.767Z,36.07
2018-05-06T13:30:37.269Z,35.22
2018-05-06T13:33:05.684Z,34.89
2018-05-06T13:35:34.153Z,34.64
2018-05-06T13:38:02.593Z,35.97
2018-05-06T13:40:31.079Z,35.85
2018-05-06T13:42:59.496Z,35.66
2018-05-06T13:45:27.977Z,35.90
2018-05-06T13:47:56.478Z,36.50
2018-05-06T13:50:24.935Z,35.25
2018-05-06T13:52:53.390Z,34.72
2018-05-06T13:55:22.595Z,35.80
2018-05-06T13:57:51.835Z,34.80
2018-05-06T14:00:21.034Z,34.81
2018-05-06T14:02:49.506Z,34.79
2018-05-06T14:05:17.944Z,33.48
2018-05-06T14:07:47.162Z,33.78
2018-05-06T14:10:15.617Z,34.28
2018-05-06T14:12:44.032Z,35.53
2018-05-06T14:15:12.502Z,34.73
2018-05-06T14:17:41.701Z,35.37
2018-05-06T14:20:10.952Z,35.71
2018-05-06T14:22:40.141Z,35.80
2018-05-06T14:25:08.581Z,34.27
2018-05-06T14:27:37.838Z,34.22
2018-05-06T14:30:07.081Z,35.48
2018-05-06T14:32:35.515Z,36.86
2018-05-06T14:35:03.948Z,34.32
2018-05-06T14:37:32.431Z,34.74
2018-05-06T14:40:01.672Z,35.16
2018-05-06T14:42:30.159Z,35.61
2018-05-06T14:44:58.604Z,34.19
2018-05-06T14:47:44.725Z,35.50
2018-05-06T14:50:13.144Z,34.92
2018-05-06T14:52:41.573Z,35.14
2018-05-06T14:55:11.828Z,33.93
2018-05-06T14:57:40.310Z,34.84
2018-05-06T15:00:08.778Z,35.34
2018-05-06T15:02:37.207Z,35.67
2018-05-06T15:05:05.691Z,34.72
2018-05-06T15:07:34.125Z,35.02
2018-05-06T15:10:02.561Z,34.01
2018-05-06T15:12:31.023Z,34.97
2018-05-06T15:15:00.208Z,34.06
2018-05-06T15:17:30.391Z,34.53
2018-05-06T15:19:59.575Z,34.87
2018-05-06T15:22:28.811Z,34.69
2018-05-06T15:24:57.250Z,34.48
2018-05-06T15:27:29.310Z,35.04
2018-05-06T15:29:57.761Z,34.88
2018-05-06T15:32:26.235Z,34.30
2018-05-06T15:34:54.668Z,34.13
2018-05-06T15:37:23.109Z,34.41
2018-05-06T15:39:51.561Z,34.88
2018-05-06T15:42:20.035Z,35.21
2018-05-06T15:44:49.252Z,34.12
2018-05-06T15:47:17.686Z,35.30
2018-05-06T15:49:46.181Z,35.17
2018-05-06T15:52:15.358Z,33.64
2018-05-06T15:54:43.817Z,34.83
2018-05-06T15:57:12.917Z,35.04
2018-05-06T15:59:41.343Z,34.69
2018-05-06T16:05:41.962Z,35.57
2018-05-06T16:08:11.381Z,34.88
2018-05-06T16:10:39.831Z,35.08
2018-05-06T16:13:08.268Z,34.28
2018-05-06T16:15:37.632Z,34.94
2018-05-06T16:18:06.093Z,34.60
2018-05-06T16:20:34.542Z,34.71
2018-05-06T16:23:02.994Z,34.60
2018-05-06T16:25:31.454Z,35.22
2018-05-06T16:28:00.125Z,34.66
2018-05-06T16:30:29.340Z,34.81
2018-05-06T16:32:57.758Z,36.25
2018-05-06T16:35:26.194Z,35.10
2018-05-06T16:37:54.679Z,36.05
2018-05-06T16:40:23.875Z,35.36
2018-05-06T16:42:52.327Z,36.73
2018-05-06T16:45:20.768Z,35.56
2018-05-06T16:47:49.219Z,34.73
2018-05-06T16:50:18.417Z,35.30
2018-05-06T16:52:46.910Z,35.57
2018-05-06T16:55:15.360Z,36.16
2018-05-06T16:57:44.433Z,35.37
2018-05-06T17:00:13.596Z,35.87
2018-05-06T17:02:42.047Z,37.23
2018-05-06T17:05:10.724Z,35.31
2018-05-06T17:07:39.149Z,35.55
2018-05-06T17:10:09.580Z,37.25
2018-05-06T17:12:38.030Z,36.27
2018-05-06T17:15:07.547Z,35.14
2018-05-06T17:17:37.920Z,36.20
2018-05-06T17:20:13.455Z,34.93
2018-05-06T17:22:42.142Z,35.72
2018-05-06T17:25:10.611Z,35.32
2018-05-06T17:27:39.159Z,35.82
2018-05-06T17:30:07.607Z,36.35
2018-05-06T17:32:36.123Z,36.58
2018-05-06T17:35:04.566Z,36.42
2018-05-06T17:37:34.740Z,35.59
2018-05-06T17:40:03.178Z,36.28
2018-05-06T17:42:33.024Z,38.39
2018-05-06T17:45:04.469Z,36.21
2018-05-06T17:47:34.543Z,37.40
2018-05-06T17:50:04.044Z,37.57
2018-05-06T17:52:32.495Z,36.86
2018-05-06T17:55:01.204Z,37.31
2018-05-06T17:57:29.690Z,37.07
2018-05-06T17:59:58.154Z,37.37
2018-05-06T18:02:26.790Z,38.14
2018-05-06T18:04:55.256Z,37.99
2018-05-06T18:07:23.829Z,37.29
2018-05-06T18:09:53.489Z,37.42
2018-05-06T18:12:22.954Z,37.64
2018-05-06T18:14:51.612Z,37.04
2018-05-06T18:17:21.082Z,36.97
2018-05-06T18:19:49.782Z,37.60
2018-05-06T18:22:18.351Z,37.36
2018-05-06T18:24:46.784Z,37.03
2018-05-06T18:27:15.627Z,37.73
2018-05-06T18:29:44.190Z,37.68
2018-05-06T18:32:13.911Z,38.35
2018-05-06T18:34:42.634Z,37.97
2018-05-06T18:37:11.353Z,38.41
2018-05-06T18:39:39.967Z,38.17
2018-05-06T18:42:08.808Z,38.42
2018-05-06T18:44:37.309Z,38.63
2018-05-06T18:47:05.878Z,38.51
2018-05-06T18:49:34.456Z,38.89
2018-05-06T18:52:03.197Z,39.52
2018-05-06T18:54:31.655Z,39.49
2018-05-06T18:57:00.322Z,38.95
2018-05-06T18:59:29.642Z,39.21
2018-05-06T19:01:58.312Z,39.54
2018-05-06T19:04:27.356Z,39.87
2018-05-06T19:06:57.269Z,39.63
2018-05-06T19:09:26.616Z,40.23
2018-05-06T19:11:56.605Z,40.27
2018-05-06T19:14:26.285Z,40.03
2018-05-06T19:16:55.988Z,39.89
2018-05-06T19:19:25.412Z,41.01
2018-05-06T19:21:54.844Z,41.22
2018-05-06T19:24:23.714Z,41.95
2018-05-06T19:26:53.115Z,40.96
2018-05-06T19:29:22.181Z,41.55
2018-05-06T19:31:51.855Z,41.48
2018-05-06T19:34:20.647Z,40.66
2018-05-06T19:36:49.722Z,41.92
2018-05-06T19:39:18.230Z,42.16
2018-05-06T19:41:47.802Z,42.13
2018-05-06T19:44:27.284Z,42.40
2018-05-06T19:46:56.472Z,42.50
2018-05-06T19:49:25.217Z,42.05
2018-05-06T19:51:56.751Z,44.06
2018-05-06T19:54:25.637Z,42.96
2018-05-06T19:56:54.808Z,43.51
2018-05-06T19:59:24.119Z,42.73
2018-05-06T20:01:52.985Z,42.67
2018-05-06T20:04:22.449Z,44.09
2018-05-06T20:06:53.560Z,43.31
2018-05-06T20:09:22.782Z,43.95
2018-05-06T20:11:52.591Z,43.61
2018-05-06T20:14:22.296Z,44.69
2018-05-06T20:16:50.870Z,44.21
2018-05-06T20:19:22.221Z,44.23
2018-05-06T20:21:57.430Z,44.81
2018-05-06T20:24:27.093Z,44.26
2018-05-06T20:26:55.662Z,45.49
2018-05-06T20:29:24.201Z,45.03
2018-05-06T20:31:53.447Z,45.74
2018-05-06T20:34:21.864Z,44.40
2018-05-06T20:36:51.072Z,44.51
2018-05-06T20:39:21.203Z,44.34
2018-05-06T20:41:49.818Z,45.13
2018-05-06T20:44:18.476Z,45.23
2018-05-06T20:46:46.970Z,43.86
2018-05-06T20:49:15.516Z,44.22
2018-05-06T20:51:44.155Z,43.53
2018-05-06T20:54:12.596Z,43.52
2018-05-06T20:56:41.043Z,43.84
2018-05-06T20:59:09.620Z,43.75
2018-05-06T21:01:38.116Z,45.87
2018-05-06T21:04:06.576Z,46.91
2018-05-06T21:06:35.040Z,47.33
2018-05-06T21:09:03.735Z,46.39
2018-05-06T21:11:32.234Z,47.43
2018-05-06T21:14:00.642Z,48.69
2018-05-06T21:16:29.091Z,47.75
2018-05-06T21:18:57.628Z,47.54
2018-05-06T21:21:26.067Z,46.87
2018-05-06T21:23:54.478Z,49.19
2018-05-06T21:26:23.038Z,49.05
2018-05-06T21:28:51.621Z,48.66
2018-05-06T21:31:20.171Z,48.55
2018-05-06T21:33:49.466Z,49.06
2018-05-06T21:36:18.766Z,48.74
2018-05-06T21:38:47.183Z,48.65
2018-05-06T21:41:16.006Z,49.70
2018-05-06T21:43:44.587Z,50.02
2018-05-06T21:46:13.179Z,49.95
2018-05-06T21:48:41.812Z,49.64
2018-05-06T21:51:10.287Z,49.80
2018-05-06T21:53:39.754Z,50.23
2018-05-06T21:56:08.229Z,50.24
2018-05-06T21:58:36.718Z,52.27
2018-05-06T22:01:05.203Z,50.91
2018-05-06T22:03:33.616Z,51.81
2018-05-06T22:06:02.909Z,51.72
2018-05-06T22:08:31.332Z,51.66
2018-05-06T22:10:59.837Z,54.27
2018-05-06T22:13:28.342Z,55.04
2018-05-06T22:15:57.582Z,54.41
2018-05-06T22:18:26.956Z,56.27
2018-05-06T22:20:55.423Z,55.08
2018-05-06T22:23:24.035Z,54.83
2018-05-06T22:25:52.506Z,55.47
2018-05-06T22:28:20.971Z,56.12
2018-05-06T22:30:49.577Z,53.22
2018-05-06T22:33:18.051Z,55.47
2018-05-06T22:35:47.283Z,56.90
2018-05-06T22:38:15.770Z,57.90
2018-05-06T22:40:44.970Z,57.82
2018-05-06T22:43:13.513Z,57.97
2018-05-06T22:45:42.032Z,55.93
2018-05-06T22:48:12.670Z,53.34
2018-05-06T22:50:42.142Z,53.15
2018-05-06T22:53:10.591Z,57.26
2018-05-06T22:55:39.044Z,58.01
2018-05-06T22:58:07.470Z,58.87
2018-05-06T23:00:35.951Z,59.39
2018-05-06T23:03:04.389Z,59.22
2018-05-06T23:05:32.829Z,61.18
2018-05-06T23:08:02.036Z,59.56
2018-05-06T23:10:30.478Z,58.04
2018-05-06T23:12:58.924Z,56.39
2018-05-06T23:15:27.731Z,54.63
2018-05-06T23:17:56.175Z,56.03
2018-05-06T23:20:24.611Z,55.66
2018-05-06T23:22:53.283Z,57.71
2018-05-06T23:25:21.786Z,56.75
2018-05-06T23:27:50.225Z,57.18
2018-05-06T23:30:19.406Z,60.33
2018-05-06T23:32:48.686Z,58.81
2018-05-06T23:35:17.135Z,59.66
2018-05-06T23:37:45.623Z,59.40
2018-05-06T23:40:14.047Z,61.37
2018-05-06T23:42:46.795Z,60.94
2018-05-06T23:45:15.212Z,59.78
2018-05-06T23:47:44.117Z,60.59
2018-05-06T23:50:12.635Z,61.87
2018-05-06T23:52:41.055Z,62.35
2018-05-06T23:55:09.519Z,63.25
2018-05-06T23:57:38.739Z,62.35
